createdAt,value
2023-02-22T00:00:42.606Z,44.73
2023-02-22T00:03:12.531Z,44.47
2023-02-22T00:05:40.424Z,44.39
2023-02-22T00:08:11.582Z,44.88
2023-02-22T00:10:38.728Z,44.69
2023-02-22T00:13:07.585Z,44.48
2023-02-22T00:15:35.011Z,44.47
2023-02-22T00:18:02.522Z,44.31
2023-02-22T00:20:29.351Z,44.38
2023-02-22T00:22:56.349Z,44.90
2023-02-22T00:25:24.593Z,44.79
2023-02-22T00:27:53.132Z,45.09
2023-02-22T00:30:21.768Z,45.03
2023-02-22T00:32:49.583Z,45.05
2023-02-22T00:35:17.524Z,45.44
2023-02-22T00:37:44.441Z,45.11
2023-02-22T00:40:12.843Z,45.23
2023-02-22T00:42:40.223Z,45.52
2023-02-22T00:45:07.826Z,45.39
2023-02-22T00:47:34.842Z,45.38
2023-02-22T00:50:02.008Z,45.22
2023-02-22T00:52:29.214Z,45.70
2023-02-22T00:54:56.456Z,45.54
2023-02-22T00:57:23.443Z,45.69
2023-02-22T00:59:50.810Z,45.76
2023-02-22T01:02:18.243Z,45.97
2023-02-22T01:04:45.406Z,45.88
2023-02-22T01:07:12.569Z,45.96
2023-02-22T01:09:40.142Z,46.17
2023-02-22T01:12:08.343Z,46.14
2023-02-22T01:14:35.351Z,45.79
2023-02-22T01:17:02.345Z,46.48
2023-02-22T01:19:29.342Z,46.27
2023-02-22T01:21:56.453Z,46.39
2023-02-22T01:24:23.467Z,46.64
2023-02-22T01:26:51.543Z,46.55
2023-02-22T01:29:19.026Z,47.03
2023-02-22T01:31:51.680Z,47.08
2023-02-22T01:34:19.039Z,47.15
2023-02-22T01:36:46.151Z,46.89
2023-02-22T01:39:13.162Z,46.86
2023-02-22T01:41:40.159Z,47.13
2023-02-22T01:44:10.281Z,47.17
2023-02-22T01:46:37.275Z,46.98
2023-02-22T01:49:07.048Z,47.03
2023-02-22T01:51:38.236Z,47.17
2023-02-22T01:54:08.357Z,47.09
2023-02-22T01:56:37.184Z,47.48
2023-02-22T01:59:07.060Z,47.29
2023-02-22T02:01:35.727Z,47.54
2023-02-22T02:04:06.241Z,47.16
2023-02-22T02:06:34.304Z,47.14
2023-02-22T02:09:05.195Z,47.10
2023-02-22T02:11:32.869Z,47.41
2023-02-22T02:14:00.063Z,47.17
2023-02-22T02:16:35.795Z,47.13
2023-02-22T02:19:04.068Z,47.17
2023-02-22T02:21:34.065Z,47.19
2023-02-22T02:24:05.285Z,47.46
2023-02-22T02:26:35.282Z,47.42
2023-02-22T02:29:05.287Z,47.31
2023-02-22T02:31:35.606Z,47.27
2023-02-22T02:34:16.461Z,47.60
2023-02-22T02:36:46.931Z,47.55
2023-02-22T02:39:16.977Z,47.41
2023-02-22T02:41:48.304Z,47.70
2023-02-22T02:44:18.153Z,47.75
2023-02-22T02:46:50.614Z,47.91
2023-02-22T02:49:22.835Z,47.72
2023-02-22T02:51:52.598Z,47.80
2023-02-22T02:54:21.380Z,47.99
2023-02-22T02:56:48.422Z,47.72
2023-02-22T02:59:18.384Z,48.23
2023-02-22T03:01:48.435Z,48.20
2023-02-22T03:04:15.762Z,47.86
2023-02-22T03:06:44.677Z,47.88
2023-02-22T03:09:18.997Z,48.00
2023-02-22T03:11:51.153Z,48.23
2023-02-22T03:14:21.210Z,48.06
2023-02-22T03:16:52.731Z,48.30
2023-02-22T03:19:23.083Z,48.60
2023-02-22T03:21:56.446Z,48.27
2023-02-22T03:24:26.336Z,48.70
2023-02-22T03:26:59.747Z,48.82
2023-02-22T03:29:28.382Z,48.87
2023-02-22T03:32:01.868Z,49.04
2023-02-22T03:34:32.580Z,48.85
2023-02-22T03:37:02.942Z,48.85
2023-02-22T03:39:32.120Z,49.06
2023-02-22T03:42:04.876Z,48.99
2023-02-22T03:44:33.227Z,49.24
2023-02-22T03:47:02.724Z,48.89
2023-02-22T03:49:30.311Z,49.15
2023-02-22T03:51:57.557Z,48.96
2023-02-22T03:54:24.922Z,49.41
2023-02-22T03:56:54.803Z,48.92
2023-02-22T03:59:25.769Z,48.92
2023-02-22T04:01:53.126Z,48.91
2023-02-22T04:04:21.612Z,49.05
2023-02-22T04:06:48.699Z,49.02
2023-02-22T04:09:15.815Z,49.37
2023-02-22T04:11:42.866Z,49.01
2023-02-22T04:14:09.987Z,49.36
2023-02-22T04:16:36.955Z,49.36
2023-02-22T04:19:04.066Z,48.92
2023-02-22T04:21:31.106Z,49.38
2023-02-22T04:23:58.548Z,49.13
2023-02-22T04:26:25.547Z,48.75
2023-02-22T04:28:52.803Z,48.94
2023-02-22T04:31:20.153Z,49.16
2023-02-22T04:33:47.330Z,49.33
2023-02-22T04:36:16.325Z,49.28
2023-02-22T04:38:43.798Z,49.30
2023-02-22T04:41:11.810Z,49.50
2023-02-22T04:43:38.884Z,49.31
2023-02-22T04:46:06.045Z,49.50
2023-02-22T04:48:33.145Z,49.22
2023-02-22T04:51:00.251Z,49.09
2023-02-22T04:53:27.296Z,49.24
2023-02-22T04:55:54.373Z,49.63
2023-02-22T04:58:21.384Z,49.19
2023-02-22T05:00:48.423Z,49.57
2023-02-22T05:03:15.512Z,49.53
2023-02-22T05:05:42.513Z,49.35
2023-02-22T05:08:09.628Z,49.75
2023-02-22T05:10:36.632Z,49.37
2023-02-22T05:13:04.277Z,49.43
2023-02-22T05:15:31.248Z,49.85
2023-02-22T05:17:58.472Z,49.71
2023-02-22T05:20:28.238Z,49.72
2023-02-22T05:22:55.838Z,49.93
2023-02-22T05:25:23.076Z,49.41
2023-02-22T05:27:51.290Z,49.43
2023-02-22T05:30:18.539Z,49.84
2023-02-22T05:32:47.009Z,49.63
2023-02-22T05:35:14.332Z,49.88
2023-02-22T05:37:41.333Z,49.71
2023-02-22T05:40:08.456Z,49.79
2023-02-22T05:42:35.588Z,49.88
2023-02-22T05:45:02.587Z,49.59
2023-02-22T05:47:29.470Z,50.02
2023-02-22T05:49:56.584Z,49.76
2023-02-22T05:52:23.707Z,49.42
2023-02-22T05:54:51.206Z,49.07
2023-02-22T05:57:18.201Z,49.32
2023-02-22T05:59:45.194Z,49.08
2023-02-22T06:02:12.228Z,49.15
2023-02-22T06:04:40.516Z,48.98
2023-02-22T06:07:07.518Z,49.02
2023-02-22T06:09:34.525Z,48.87
2023-02-22T06:12:01.554Z,48.57
2023-02-22T06:14:28.527Z,48.29
2023-02-22T06:16:56.374Z,48.47
2023-02-22T06:19:23.497Z,48.35
2023-02-22T06:21:52.243Z,48.21
2023-02-22T06:24:19.535Z,48.11
2023-02-22T06:26:46.782Z,48.06
2023-02-22T06:29:14.034Z,48.06
2023-02-22T06:31:41.151Z,47.52
2023-02-22T06:34:08.406Z,47.53
2023-02-22T06:36:35.429Z,47.49
2023-02-22T06:39:02.409Z,47.47
2023-02-22T06:41:29.516Z,47.01
2023-02-22T06:43:56.623Z,47.25
2023-02-22T06:46:23.643Z,46.87
2023-02-22T06:48:52.095Z,47.02
2023-02-22T06:51:19.371Z,46.94
2023-02-22T06:53:46.444Z,47.09
2023-02-22T06:56:13.571Z,46.79
2023-02-22T06:58:40.704Z,46.96
2023-02-22T07:01:08.277Z,47.14
2023-02-22T07:03:36.215Z,46.93
2023-02-22T07:06:03.255Z,46.80
2023-02-22T07:08:30.378Z,46.75
2023-02-22T07:10:57.503Z,47.01
2023-02-22T07:13:24.506Z,46.76
2023-02-22T07:15:51.653Z,47.35
2023-02-22T07:18:18.799Z,46.79
2023-02-22T07:20:46.114Z,46.99
2023-02-22T07:23:16.129Z,46.82
2023-02-22T07:25:43.624Z,46.93
2023-02-22T07:28:11.453Z,46.90
2023-02-22T07:30:38.608Z,46.78
2023-02-22T07:33:07.215Z,45.87
2023-02-22T07:35:37.126Z,45.81
2023-02-22T07:38:06.536Z,45.24
2023-02-22T07:40:33.785Z,45.21
2023-02-22T07:43:02.243Z,44.69
2023-02-22T07:45:30.862Z,44.02
2023-02-22T07:47:58.387Z,43.81
2023-02-22T07:50:26.275Z,43.94
2023-02-22T07:52:55.032Z,43.65
2023-02-22T07:55:23.482Z,43.82
2023-02-22T07:57:51.834Z,43.24
2023-02-22T08:00:21.915Z,43.30
2023-02-22T08:02:48.933Z,43.18
2023-02-22T08:05:16.229Z,42.70
2023-02-22T08:07:43.744Z,42.67
2023-02-22T08:10:11.740Z,42.65
2023-02-22T08:12:38.871Z,42.61
2023-02-22T08:15:07.943Z,42.22
2023-02-22T08:17:35.179Z,42.85
2023-02-22T08:20:02.312Z,43.44
2023-02-22T08:22:29.784Z,43.65
2023-02-22T08:24:56.970Z,43.76
2023-02-22T08:27:25.673Z,43.97
2023-02-22T08:29:52.913Z,44.54
2023-02-22T08:32:20.723Z,44.55
2023-02-22T08:34:48.362Z,44.29
2023-02-22T08:37:17.643Z,44.93
2023-02-22T08:39:45.363Z,44.98
2023-02-22T08:42:12.892Z,44.42
2023-02-22T08:44:40.926Z,43.98
2023-02-22T08:47:08.456Z,44.22
2023-02-22T08:49:36.294Z,44.24
2023-02-22T08:52:03.540Z,44.05
2023-02-22T08:54:30.733Z,44.19
2023-02-22T08:56:57.851Z,44.18
2023-02-22T08:59:25.138Z,44.09
2023-02-22T09:01:52.407Z,44.12
2023-02-22T09:04:19.506Z,44.71
2023-02-22T09:06:52.066Z,44.47
2023-02-22T09:09:21.858Z,44.43
2023-02-22T09:11:51.440Z,44.55
2023-02-22T09:14:19.755Z,44.66
2023-02-22T09:16:47.045Z,44.46
2023-02-22T09:19:14.116Z,44.40
2023-02-22T09:21:41.241Z,44.42
2023-02-22T09:24:09.270Z,44.65
2023-02-22T09:26:39.685Z,44.66
2023-02-22T09:29:10.156Z,44.66
2023-02-22T09:31:38.482Z,44.51
2023-02-22T09:34:14.152Z,44.70
2023-02-22T09:36:41.851Z,44.84
2023-02-22T09:39:11.611Z,45.10
2023-02-22T09:41:44.251Z,44.87
2023-02-22T09:44:15.771Z,44.94
2023-02-22T09:46:46.146Z,45.19
2023-02-22T09:49:14.490Z,44.98
2023-02-22T09:51:45.001Z,44.96
2023-02-22T09:54:15.357Z,45.11
2023-02-22T09:56:43.913Z,45.51
2023-02-22T09:59:13.810Z,45.47
2023-02-22T10:01:45.225Z,45.10
2023-02-22T10:04:19.144Z,45.30
2023-02-22T10:06:49.272Z,45.55
2023-02-22T10:09:16.311Z,45.33
2023-02-22T10:11:49.040Z,45.67
2023-02-22T10:14:16.405Z,45.34
2023-02-22T10:16:44.835Z,45.23
2023-02-22T10:19:15.243Z,45.52
2023-02-22T10:21:45.506Z,45.81
2023-02-22T10:24:20.620Z,45.44
2023-02-22T10:26:47.781Z,45.69
2023-02-22T10:29:18.227Z,45.48
2023-02-22T10:31:47.661Z,46.08
2023-02-22T10:34:16.817Z,48.20
2023-02-22T10:36:45.602Z,48.92
2023-02-22T10:39:15.833Z,48.76
2023-02-22T10:41:47.397Z,47.64
2023-02-22T10:44:14.563Z,47.40
2023-02-22T10:46:42.520Z,47.27
2023-02-22T10:49:11.515Z,47.20
2023-02-22T10:51:39.770Z,47.00
2023-02-22T10:54:20.464Z,46.71
2023-02-22T10:56:49.817Z,46.86
2023-02-22T10:59:20.341Z,46.36
2023-02-22T11:01:47.577Z,46.60
2023-02-22T11:04:17.893Z,46.15
2023-02-22T11:06:48.517Z,45.93
2023-02-22T11:09:18.495Z,45.87
2023-02-22T11:11:47.068Z,45.80
2023-02-22T11:14:17.358Z,45.81
2023-02-22T11:16:50.875Z,45.78
2023-02-22T11:19:21.275Z,45.87
2023-02-22T11:21:51.786Z,45.45
2023-02-22T11:24:20.576Z,45.55
2023-02-22T11:26:49.594Z,45.31
2023-02-22T11:29:19.831Z,45.73
2023-02-22T11:31:49.814Z,45.28
2023-02-22T11:34:20.190Z,45.52
2023-02-22T11:36:47.254Z,45.30
2023-02-22T11:39:17.575Z,45.36
2023-02-22T11:41:44.860Z,45.90
2023-02-22T11:44:15.311Z,45.46
2023-02-22T11:46:43.297Z,45.55
2023-02-22T11:49:12.237Z,45.57
2023-02-22T11:51:42.454Z,45.58
2023-02-22T11:54:12.544Z,45.82
2023-02-22T11:56:44.624Z,45.84
2023-02-22T11:59:14.993Z,45.41
2023-02-22T12:01:42.308Z,45.76
2023-02-22T12:04:09.775Z,45.56
2023-02-22T12:06:40.879Z,45.56
2023-02-22T12:09:14.396Z,45.58
2023-02-22T12:11:47.121Z,45.79
2023-02-22T12:14:18.071Z,45.63
2023-02-22T12:16:48.232Z,45.86
2023-02-22T12:19:18.617Z,45.67
2023-02-22T12:21:48.925Z,45.83
2023-02-22T12:24:19.529Z,45.58
2023-02-22T12:26:49.081Z,45.88
2023-02-22T12:29:16.659Z,45.82
2023-02-22T12:31:46.908Z,45.63
2023-02-22T12:34:22.341Z,45.92
2023-02-22T12:36:52.232Z,45.97
2023-02-22T12:39:22.346Z,45.75
2023-02-22T12:41:53.001Z,45.76
2023-02-22T12:44:25.315Z,46.03
2023-02-22T12:46:54.158Z,45.88
2023-02-22T12:49:24.483Z,46.10
2023-02-22T12:51:55.884Z,45.77
2023-02-22T12:54:26.343Z,46.11
2023-02-22T12:56:53.806Z,45.90
2023-02-22T12:59:26.212Z,46.14
2023-02-22T13:01:57.510Z,45.96
2023-02-22T13:04:24.759Z,46.38
2023-02-22T13:06:55.017Z,46.18
2023-02-22T13:09:32.056Z,46.27
2023-02-22T13:12:00.623Z,46.10
2023-02-22T13:14:30.786Z,46.26
2023-02-22T13:17:01.147Z,46.06
2023-02-22T13:19:31.295Z,46.58
2023-02-22T13:21:59.895Z,46.37
2023-02-22T13:24:33.066Z,46.29
2023-02-22T13:27:04.980Z,46.24
2023-02-22T13:29:35.111Z,46.34
2023-02-22T13:32:05.524Z,46.54
2023-02-22T13:34:35.717Z,46.58
2023-02-22T13:37:03.319Z,46.19
2023-02-22T13:39:33.565Z,46.54
2023-02-22T13:42:03.880Z,46.47
2023-02-22T13:44:31.374Z,46.43
2023-02-22T13:47:01.905Z,46.23
2023-02-22T13:49:29.497Z,46.49
2023-02-22T13:52:00.466Z,46.19
2023-02-22T13:54:29.866Z,46.53
2023-02-22T13:56:57.374Z,46.53
2023-02-22T13:59:28.069Z,46.11
2023-02-22T14:01:56.706Z,46.32
2023-02-22T14:04:27.257Z,46.06
2023-02-22T14:07:00.990Z,46.04
2023-02-22T14:09:31.318Z,45.76
2023-02-22T14:11:58.851Z,45.46
2023-02-22T14:14:26.270Z,45.46
2023-02-22T14:16:56.408Z,45.43
2023-02-22T14:19:25.330Z,45.36
2023-02-22T14:21:56.066Z,45.56
2023-02-22T14:24:23.477Z,45.36
2023-02-22T14:26:53.772Z,45.59
2023-02-22T14:29:22.095Z,45.31
2023-02-22T14:31:51.283Z,45.59
2023-02-22T14:34:18.933Z,45.74
2023-02-22T14:36:51.387Z,45.61
2023-02-22T14:39:21.271Z,45.64
2023-02-22T14:41:51.981Z,45.48
2023-02-22T14:44:22.308Z,45.44
2023-02-22T14:46:51.701Z,45.56
2023-02-22T14:49:22.098Z,45.48
2023-02-22T14:51:53.919Z,45.24
2023-02-22T14:54:25.954Z,45.00
2023-02-22T14:56:59.748Z,45.06
2023-02-22T14:59:28.310Z,45.09
2023-02-22T15:02:10.973Z,45.25
2023-02-22T15:04:39.122Z,45.34
2023-02-22T15:07:09.416Z,45.23
2023-02-22T15:09:37.959Z,45.08
2023-02-22T15:12:05.551Z,45.28
2023-02-22T15:14:38.203Z,45.02
2023-02-22T15:17:08.650Z,45.38
2023-02-22T15:19:39.373Z,45.18
2023-02-22T15:22:09.746Z,45.36
2023-02-22T15:24:37.985Z,45.34
2023-02-22T15:27:06.664Z,45.36
2023-02-22T15:29:36.806Z,45.37
2023-02-22T15:32:18.404Z,44.90
2023-02-22T15:34:46.039Z,45.25
2023-02-22T15:37:19.533Z,45.28
2023-02-22T15:39:46.758Z,45.16
2023-02-22T15:42:20.488Z,45.14
2023-02-22T15:44:48.926Z,45.32
2023-02-22T15:47:18.569Z,45.21
2023-02-22T15:49:45.687Z,44.93
2023-02-22T15:52:16.090Z,44.88
2023-02-22T15:54:45.225Z,44.68
2023-02-22T15:57:15.417Z,44.80
2023-02-22T15:59:44.387Z,44.93
2023-02-22T16:02:15.099Z,44.87
2023-02-22T16:04:48.419Z,44.77
2023-02-22T16:07:21.948Z,44.80
2023-02-22T16:09:49.909Z,44.72
2023-02-22T16:12:20.155Z,45.03
2023-02-22T16:14:49.796Z,44.94
2023-02-22T16:17:25.236Z,44.83
2023-02-22T16:19:53.558Z,44.83
2023-02-22T16:22:23.716Z,44.87
2023-02-22T16:24:52.985Z,44.96
2023-02-22T16:27:21.728Z,45.31
2023-02-22T16:29:52.048Z,45.24
2023-02-22T16:32:19.440Z,45.04
2023-02-22T16:34:48.469Z,45.22
2023-02-22T16:37:18.847Z,44.94
2023-02-22T16:39:46.339Z,45.31
2023-02-22T16:42:20.655Z,45.33
2023-02-22T16:44:47.866Z,44.99
2023-02-22T16:47:15.261Z,45.30
2023-02-22T16:49:42.864Z,45.22
2023-02-22T16:52:10.057Z,45.26
2023-02-22T16:54:42.110Z,45.34
2023-02-22T16:57:16.004Z,45.03
2023-02-22T16:59:43.350Z,45.28
2023-02-22T17:02:14.913Z,45.44
2023-02-22T17:04:42.142Z,45.23
2023-02-22T17:07:09.708Z,45.55
2023-02-22T17:09:36.827Z,45.43
2023-02-22T17:12:04.363Z,45.29
2023-02-22T17:14:33.873Z,45.76
2023-02-22T17:17:00.918Z,45.77
2023-02-22T17:19:27.897Z,45.73
2023-02-22T17:21:54.882Z,45.55
2023-02-22T17:24:23.486Z,45.88
2023-02-22T17:26:52.374Z,45.61
2023-02-22T17:29:19.388Z,45.65
2023-02-22T17:31:46.616Z,45.64
2023-02-22T17:34:13.598Z,46.01
2023-02-22T17:36:40.842Z,45.76
2023-02-22T17:39:10.927Z,45.55
2023-02-22T17:41:40.546Z,45.28
2023-02-22T17:44:08.147Z,45.28
2023-02-22T17:46:35.970Z,45.65
2023-02-22T17:49:03.664Z,45.59
2023-02-22T17:51:30.756Z,45.28
2023-02-22T17:53:57.763Z,45.07
2023-02-22T17:56:25.031Z,45.12
2023-02-22T17:58:53.828Z,45.05
2023-02-22T18:01:25.011Z,45.29
2023-02-22T18:03:52.363Z,44.78
2023-02-22T18:06:24.013Z,44.86
2023-02-22T18:08:56.070Z,45.15
2023-02-22T18:11:26.720Z,45.12
2023-02-22T18:13:57.142Z,45.25
2023-02-22T18:16:26.053Z,44.88
2023-02-22T18:18:53.887Z,44.62
2023-02-22T18:21:21.339Z,44.67
2023-02-22T18:23:48.646Z,44.67
2023-02-22T18:26:16.998Z,44.67
2023-02-22T18:28:44.003Z,44.63
2023-02-22T18:31:15.114Z,44.42
2023-02-22T18:33:43.974Z,44.42
2023-02-22T18:36:12.468Z,44.59
2023-02-22T18:38:43.446Z,44.54
2023-02-22T18:41:13.164Z,44.11
2023-02-22T18:43:40.942Z,44.12
2023-02-22T18:46:11.033Z,44.08
2023-02-22T18:48:39.099Z,44.43
2023-02-22T18:51:08.633Z,44.20
2023-02-22T18:53:37.102Z,44.11
2023-02-22T18:56:05.518Z,43.85
2023-02-22T18:58:33.262Z,44.14
2023-02-22T19:01:01.184Z,43.93
2023-02-22T19:03:28.484Z,43.99
2023-02-22T19:05:56.491Z,43.93
2023-02-22T19:08:23.504Z,43.74
2023-02-22T19:10:50.527Z,44.12
2023-02-22T19:13:17.905Z,43.98
2023-02-22T19:15:44.994Z,43.89
2023-02-22T19:18:12.099Z,44.01
2023-02-22T19:23:10.710Z,43.73
2023-02-22T19:25:40.703Z,43.64
2023-02-22T19:28:07.746Z,43.80
2023-02-22T19:30:34.899Z,43.60
2023-02-22T19:33:05.026Z,43.84
2023-02-22T19:35:32.293Z,43.44
2023-02-22T19:37:59.272Z,43.51
2023-02-22T19:40:26.690Z,43.42
2023-02-22T19:42:55.011Z,43.63
2023-02-22T19:45:23.023Z,43.50
2023-02-22T19:47:53.885Z,43.35
2023-02-22T19:50:21.495Z,43.45
2023-02-22T19:52:48.901Z,43.68
2023-02-22T19:55:16.188Z,43.46
2023-02-22T19:57:46.746Z,43.44
2023-02-22T20:00:14.599Z,43.30
2023-02-22T20:02:41.926Z,43.47
2023-02-22T20:05:12.205Z,43.53
2023-02-22T20:07:39.239Z,43.05
2023-02-22T20:10:07.466Z,43.00
2023-02-22T20:12:34.630Z,43.05
2023-02-22T20:15:01.810Z,43.12
2023-02-22T20:17:28.880Z,43.15
2023-02-22T20:19:55.844Z,43.33
2023-02-22T20:22:22.833Z,43.26
2023-02-22T20:24:50.107Z,43.07
2023-02-22T20:27:17.140Z,43.08
2023-02-22T20:29:44.146Z,42.76
2023-02-22T20:32:12.785Z,43.01
2023-02-22T20:34:40.013Z,42.73
2023-02-22T20:37:07.216Z,43.10
2023-02-22T20:39:34.393Z,42.63
2023-02-22T20:42:03.127Z,42.51
2023-02-22T20:44:30.459Z,42.82
2023-02-22T20:46:57.665Z,42.79
2023-02-22T20:49:26.108Z,43.11
2023-02-22T20:51:53.301Z,42.68
2023-02-22T20:54:20.585Z,42.58
2023-02-22T20:56:47.876Z,42.54
2023-02-22T20:59:16.353Z,42.58
2023-02-22T21:01:43.960Z,42.81
2023-02-22T21:04:11.508Z,42.97
2023-02-22T21:06:39.776Z,42.62
2023-02-22T21:09:09.084Z,43.06
2023-02-22T21:11:36.196Z,42.83
2023-02-22T21:14:03.982Z,42.73
2023-02-22T21:16:32.456Z,42.88
2023-02-22T21:19:01.577Z,42.82
2023-02-22T21:21:28.995Z,42.87
2023-02-22T21:23:57.026Z,42.54
2023-02-22T21:26:25.318Z,42.87
2023-02-22T21:28:52.851Z,42.60
2023-02-22T21:31:22.106Z,43.09
2023-02-22T21:33:51.030Z,42.68
2023-02-22T21:36:18.234Z,42.66
2023-02-22T21:38:47.104Z,43.17
2023-02-22T21:41:15.922Z,43.06
2023-02-22T21:43:44.220Z,42.83
2023-02-22T21:46:11.433Z,42.94
2023-02-22T21:48:39.827Z,43.18
2023-02-22T21:51:09.723Z,43.19
2023-02-22T21:53:36.951Z,42.88
2023-02-22T21:56:05.765Z,42.96
2023-02-22T21:58:32.834Z,42.84
2023-02-22T22:01:04.781Z,42.86
2023-02-22T22:03:31.956Z,43.35
2023-02-22T22:06:00.840Z,43.38
2023-02-22T22:08:31.543Z,43.12
2023-02-22T22:10:58.825Z,43.06
2023-02-22T22:13:28.413Z,43.40
2023-02-22T22:15:55.521Z,43.55
2023-02-22T22:18:22.451Z,43.94
2023-02-22T22:20:52.284Z,43.62
2023-02-22T22:23:19.824Z,44.04
2023-02-22T22:25:47.010Z,44.06
2023-02-22T22:28:14.047Z,43.79
2023-02-22T22:30:42.983Z,44.23
2023-02-22T22:33:11.716Z,44.01
2023-02-22T22:35:39.581Z,44.22
2023-02-22T22:38:07.221Z,44.54
2023-02-22T22:40:34.839Z,44.29
2023-02-22T22:43:01.908Z,44.60
2023-02-22T22:45:28.986Z,44.61
2023-02-22T22:47:57.444Z,44.87
2023-02-22T22:50:27.008Z,44.66
2023-02-22T22:52:55.988Z,45.03
2023-02-22T22:55:24.686Z,45.11
2023-02-22T22:57:52.801Z,44.77
2023-02-22T23:00:23.157Z,45.17
2023-02-22T23:02:50.247Z,44.94
2023-02-22T23:05:17.787Z,45.16
2023-02-22T23:07:45.549Z,45.25
2023-02-22T23:10:13.529Z,45.16
2023-02-22T23:12:43.079Z,45.32
2023-02-22T23:15:10.695Z,45.16
2023-02-22T23:17:42.725Z,45.66
2023-02-22T23:20:12.116Z,45.56
2023-02-22T23:22:40.740Z,45.50
2023-02-22T23:25:08.447Z,46.05
2023-02-22T23:27:35.480Z,46.25
2023-02-22T23:30:02.507Z,46.41
2023-02-22T23:32:29.753Z,46.15
2023-02-22T23:34:56.922Z,46.57
2023-02-22T23:37:24.232Z,46.41
2023-02-22T23:39:51.381Z,46.93
2023-02-22T23:42:18.462Z,46.96
2023-02-22T23:44:46.845Z,46.59
2023-02-22T23:47:16.452Z,47.01
2023-02-22T23:49:45.739Z,47.11
2023-02-22T23:52:13.722Z,47.01
2023-02-22T23:54:44.240Z,46.76
2023-02-22T23:57:11.326Z,47.07
2023-02-22T23:59:40.724Z,46.90
